Airfield :
LOGIN :

Register | Disclaimer

   EN    FR    IT 

 










Legend :    VFR   Marginal VFR   IFR   Intensive IFR   Very Intensive IFR
Visi :
Ceiling :
>= 8 km
>= 3000ft
5 to 8 km
1000 to 3000 ft
1500m to 5 km
500 to 1000 ft
800 to 1500m
200 to 500 ft
< 800m
< 200 ft
Symbols :   Thunderstorms  Fog  Heavy snow  Heavy precipitations  Wind > 20 kt
SIGMETs :     Misc.  Thunderstorms  Icing  Turbulence  Mountain Waves  Volcanic Ashes







- Airport Elevation : 776 ft
- IATA code : RMS


ETAR - Ramstein Air Base

CURRENT METAR :
  • 191256Z 02007KT 9999 CLR 18/10 A3018 RMK AO2A SLP224 T01830183 $

EXPIRED METARs :
  • 191156Z 03009KT 9999 CLR 18/10 A3019 RMK AO2A SLP227 T01750175 10175 20066 57010 $
  • 191056Z 02005KT 9000 BR FEW080 16/10 A3021 RMK AO2A SLP234 T01600160 $
  • 191026Z 03004KT 8000 BR SCT017 15/13 A3021 RMK AO2A SLP234 $
  • 190956Z 00000KT 8000 BR OVC016 14/13 A3022 RMK AO2A CIG 015 RWY26 SLP239 T01400140 $

TAF TAF ETAR
Valid from the 19 at 10:00 until the 20 at 16:00 UTC


191002Z 1910/2016 06009KT 9999 BKN015 QNH3019INS
BECMG 1910/1911 06009KT 9999 SCT020 QNH3017INS
BECMG 1918/1919 VRB06KT 8000 BR BKN015 QNH3020INS
BECMG 2005/2006 VRB06KT 5000 BR BKN015 QNH3030INS
BECMG 2009/2010 04006KT 9999 NSW BKN020 QNH3036INS TX18/1913Z TN09/2006Z
No reported NOTAMs for that airfield.



MET'MAP, your aeronautical weather chart ! - Copyright ORBIFLY December 2007 - Disclaimer

ORBIFLY MET'MAP TEAM :

Programming & Development : Alexandra Zaïnal
Concept & Development : Baudouin d'Aumeries
Co-Development & Prog : Marc-Olivier Méhu
Technical & hardware support : Manuel Goepfert

Contact : metmap@orbifly.com




SOURCES & CREDITS :

   NOAA